Overview Statistics Trail Chart Weather Telemetry Raw packets
 

This is the latest recevied weather packets stored in our database for station/object ENRA. If no packets are shown the sender has not sent any weather packets the latest 10 day(s).

<< 1 2 3 4 5 >>
Time Temp. Humidity Pressure Rain* Wind** Luminosity Snow
1788629588 11.67° C 81% 1003 hPa - - - -
1788627803 12.78° C 71% 1003 hPa - - - -
1788625987 13.89° C 67% 1003 hPa - - - -
1788624187 13.89° C 67% 1003 hPa - - - -
1788622388 13.89° C 71% 1002 hPa - - - -
1788618787 15° C 67% 1002 hPa - - - -
1788616987 15° C 67% 1001 hPa - - - -
1788615187 15.56° C 51% 1001 hPa - - - -
1788613386 17.78° C 48% 1001 hPa - - - -
1788611587 15.56° C 58% 1001 hPa - - - -
1788609787 16.67° C 55% 1001 hPa - - - -
1788607987 16.67° C 51% 1001 hPa - - - -
1788606188 15° C 58% 1000 hPa - - - -
1788604386 17.78° C 48% 1000 hPa - - - -
1788602588 15.56° C 63% 1000 hPa - - - -
1788600787 15.56° C 58% 1000 hPa - - - -
1788598987 13.89° C 67% 1000 hPa - - - -
1788597186 13.89° C 67% 1000 hPa - - - -
1788595386 11.67° C 76% 1000 hPa - - - -
1788591786 11.67° C 81% 1000 hPa - - - -
1788588186 10.56° C 87% 999 hPa - - - -
1788586387 10° C 87% 999 hPa - - - -
1788584586 10° C 93% 999 hPa - - - -
1788582786 8.89° C 93% 999 hPa - - - -
1788580986 8.89° C 93% 999 hPa - - - -

* Rain since midnight (hover to see other rain measurements)
** Current wind speed in m/s (hover to see current wind gust speed)